sensor_id;sensor_type;location;lat;lon;timestamp;P1;durP1;ratioP1;P2;durP2;ratioP2
49444;SDS011;35323;43.080;-81.378;2023-03-05T00:01:02;5.60;;;2.70;;
49444;SDS011;35323;43.080;-81.378;2023-03-05T00:03:30;3.22;;;2.20;;
49444;SDS011;35323;43.080;-81.378;2023-03-05T00:05:58;2.70;;;2.50;;
49444;SDS011;35323;43.080;-81.378;2023-03-05T00:08:26;3.40;;;2.47;;
49444;SDS011;35323;43.080;-81.378;2023-03-05T00:10:54;3.50;;;2.83;;
49444;SDS011;35323;43.080;-81.378;2023-03-05T00:13:22;9.10;;;3.20;;
49444;SDS011;35323;43.080;-81.378;2023-03-05T00:15:50;4.78;;;3.70;;
49444;SDS011;35323;43.080;-81.378;2023-03-05T00:18:18;4.78;;;3.60;;
49444;SDS011;35323;43.080;-81.378;2023-03-05T00:20:45;4.10;;;2.63;;
49444;SDS011;35323;43.080;-81.378;2023-03-05T00:23:13;5.07;;;3.88;;
49444;SDS011;35323;43.080;-81.378;2023-03-05T00:25:41;8.88;;;5.93;;
49444;SDS011;35323;43.080;-81.378;2023-03-05T00:28:09;5.65;;;2.75;;
49444;SDS011;35323;43.080;-81.378;2023-03-05T00:30:36;7.35;;;4.47;;
49444;SDS011;35323;43.080;-81.378;2023-03-05T00:33:07;9.02;;;3.30;;
49444;SDS011;35323;43.080;-81.378;2023-03-05T00:35:39;8.32;;;4.57;;
49444;SDS011;35323;43.080;-81.378;2023-03-05T00:38:07;10.25;;;6.40;;
49444;SDS011;35323;43.080;-81.378;2023-03-05T00:40:36;7.47;;;4.63;;
49444;SDS011;35323;43.080;-81.378;2023-03-05T00:43:04;13.45;;;4.82;;
49444;SDS011;35323;43.080;-81.378;2023-03-05T00:45:32;5.50;;;4.70;;
49444;SDS011;35323;43.080;-81.378;2023-03-05T00:48:00;7.18;;;4.85;;
49444;SDS011;35323;43.080;-81.378;2023-03-05T00:50:27;13.70;;;3.92;;
49444;SDS011;35323;43.080;-81.378;2023-03-05T00:52:55;11.98;;;3.88;;
49444;SDS011;35323;43.080;-81.378;2023-03-05T00:55:23;10.93;;;5.40;;
49444;SDS011;35323;43.080;-81.378;2023-03-05T00:57:51;5.45;;;3.85;;
49444;SDS011;35323;43.080;-81.378;2023-03-05T01:00:19;4.20;;;3.72;;
49444;SDS011;35323;43.080;-81.378;2023-03-05T01:02:46;5.97;;;4.47;;
49444;SDS011;35323;43.080;-81.378;2023-03-05T01:05:14;5.15;;;3.78;;
49444;SDS011;35323;43.080;-81.378;2023-03-05T01:07:42;2.65;;;2.45;;
49444;SDS011;35323;43.080;-81.378;2023-03-05T01:10:09;5.93;;;3.60;;
49444;SDS011;35323;43.080;-81.378;2023-03-05T01:12:37;9.13;;;4.25;;
49444;SDS011;35323;43.080;-81.378;2023-03-05T01:15:08;8.73;;;4.32;;
49444;SDS011;35323;43.080;-81.378;2023-03-05T01:17:35;6.70;;;3.53;;
49444;SDS011;35323;43.080;-81.378;2023-03-05T01:20:03;13.00;;;5.15;;
49444;SDS011;35323;43.080;-81.378;2023-03-05T01:22:31;12.63;;;4.45;;
49444;SDS011;35323;43.080;-81.378;2023-03-05T01:24:59;9.25;;;3.90;;
49444;SDS011;35323;43.080;-81.378;2023-03-05T01:27:27;5.75;;;3.08;;
49444;SDS011;35323;43.080;-81.378;2023-03-05T01:29:54;4.63;;;2.75;;
49444;SDS011;35323;43.080;-81.378;2023-03-05T01:32:22;4.05;;;3.13;;
49444;SDS011;35323;43.080;-81.378;2023-03-05T01:34:49;6.68;;;3.70;;
49444;SDS011;35323;43.080;-81.378;2023-03-05T01:37:17;5.03;;;3.65;;
49444;SDS011;35323;43.080;-81.378;2023-03-05T01:39:44;4.90;;;3.97;;
49444;SDS011;35323;43.080;-81.378;2023-03-05T01:42:15;4.13;;;3.70;;
49444;SDS011;35323;43.080;-81.378;2023-03-05T01:44:57;4.40;;;3.78;;
49444;SDS011;35323;43.080;-81.378;2023-03-05T01:47:25;4.60;;;3.55;;
49444;SDS011;35323;43.080;-81.378;2023-03-05T01:49:53;4.43;;;3.17;;
49444;SDS011;35323;43.080;-81.378;2023-03-05T01:52:21;3.22;;;2.72;;
49444;SDS011;35323;43.080;-81.378;2023-03-05T01:54:53;4.80;;;3.28;;
49444;SDS011;35323;43.080;-81.378;2023-03-05T01:57:24;4.20;;;3.40;;
49444;SDS011;35323;43.080;-81.378;2023-03-05T01:59:55;6.78;;;4.50;;
49444;SDS011;35323;43.080;-81.378;2023-03-05T02:02:24;6.03;;;3.80;;
49444;SDS011;35323;43.080;-81.378;2023-03-05T02:07:20;5.00;;;2.60;;
49444;SDS011;35323;43.080;-81.378;2023-03-05T02:09:48;5.10;;;4.50;;
49444;SDS011;35323;43.080;-81.378;2023-03-05T02:12:16;6.63;;;3.30;;
49444;SDS011;35323;43.080;-81.378;2023-03-05T02:14:44;4.25;;;3.80;;
49444;SDS011;35323;43.080;-81.378;2023-03-05T02:17:13;7.88;;;3.97;;
49444;SDS011;35323;43.080;-81.378;2023-03-05T02:19:51;8.02;;;4.53;;
49444;SDS011;35323;43.080;-81.378;2023-03-05T02:22:21;5.97;;;5.22;;
49444;SDS011;35323;43.080;-81.378;2023-03-05T02:24:49;10.40;;;5.03;;
49444;SDS011;35323;43.080;-81.378;2023-03-05T02:27:17;7.05;;;3.78;;
49444;SDS011;35323;43.080;-81.378;2023-03-05T02:29:45;7.82;;;4.35;;
49444;SDS011;35323;43.080;-81.378;2023-03-05T02:32:13;5.35;;;3.80;;
49444;SDS011;35323;43.080;-81.378;2023-03-05T02:34:40;4.47;;;3.42;;
49444;SDS011;35323;43.080;-81.378;2023-03-05T02:37:08;4.90;;;3.92;;
49444;SDS011;35323;43.080;-81.378;2023-03-05T02:39:36;5.40;;;3.33;;
49444;SDS011;35323;43.080;-81.378;2023-03-05T02:42:06;4.22;;;3.80;;
49444;SDS011;35323;43.080;-81.378;2023-03-05T02:44:34;4.63;;;3.90;;
49444;SDS011;35323;43.080;-81.378;2023-03-05T02:47:02;10.10;;;3.67;;
49444;SDS011;35323;43.080;-81.378;2023-03-05T02:49:30;5.57;;;4.25;;
49444;SDS011;35323;43.080;-81.378;2023-03-05T02:51:58;9.43;;;3.75;;
49444;SDS011;35323;43.080;-81.378;2023-03-05T02:54:26;3.92;;;3.53;;
49444;SDS011;35323;43.080;-81.378;2023-03-05T02:56:53;5.07;;;3.97;;
49444;SDS011;35323;43.080;-81.378;2023-03-05T02:59:21;5.60;;;4.13;;
49444;SDS011;35323;43.080;-81.378;2023-03-05T03:01:49;4.88;;;3.95;;
49444;SDS011;35323;43.080;-81.378;2023-03-05T03:04:16;7.10;;;3.90;;
49444;SDS011;35323;43.080;-81.378;2023-03-05T03:06:44;6.28;;;4.40;;
49444;SDS011;35323;43.080;-81.378;2023-03-05T03:09:11;3.88;;;3.25;;
49444;SDS011;35323;43.080;-81.378;2023-03-05T03:11:39;5.25;;;4.38;;
49444;SDS011;35323;43.080;-81.378;2023-03-05T03:14:09;4.90;;;3.75;;
49444;SDS011;35323;43.080;-81.378;2023-03-05T03:16:37;5.90;;;4.47;;
49444;SDS011;35323;43.080;-81.378;2023-03-05T03:19:04;6.72;;;3.42;;
49444;SDS011;35323;43.080;-81.378;2023-03-05T03:21:32;7.38;;;5.00;;
49444;SDS011;35323;43.080;-81.378;2023-03-05T03:24:00;5.88;;;4.65;;
49444;SDS011;35323;43.080;-81.378;2023-03-05T03:26:27;6.68;;;3.80;;
49444;SDS011;35323;43.080;-81.378;2023-03-05T03:28:56;7.07;;;4.72;;
49444;SDS011;35323;43.080;-81.378;2023-03-05T03:31:24;6.38;;;3.55;;
49444;SDS011;35323;43.080;-81.378;2023-03-05T03:33:51;12.18;;;5.90;;
49444;SDS011;35323;43.080;-81.378;2023-03-05T03:36:19;8.60;;;5.43;;
49444;SDS011;35323;43.080;-81.378;2023-03-05T03:38:47;5.07;;;4.53;;
49444;SDS011;35323;43.080;-81.378;2023-03-05T03:41:16;6.30;;;5.22;;
49444;SDS011;35323;43.080;-81.378;2023-03-05T03:43:45;9.43;;;5.10;;
49444;SDS011;35323;43.080;-81.378;2023-03-05T03:46:12;6.03;;;4.53;;
49444;SDS011;35323;43.080;-81.378;2023-03-05T03:48:40;6.38;;;3.95;;
49444;SDS011;35323;43.080;-81.378;2023-03-05T03:51:07;5.72;;;4.90;;
49444;SDS011;35323;43.080;-81.378;2023-03-05T03:53:35;6.50;;;4.97;;
49444;SDS011;35323;43.080;-81.378;2023-03-05T03:56:03;8.10;;;5.68;;
49444;SDS011;35323;43.080;-81.378;2023-03-05T03:58:31;9.50;;;5.32;;
49444;SDS011;35323;43.080;-81.378;2023-03-05T04:00:58;6.20;;;4.53;;
49444;SDS011;35323;43.080;-81.378;2023-03-05T04:03:26;5.53;;;4.80;;
49444;SDS011;35323;43.080;-81.378;2023-03-05T04:05:53;5.97;;;4.03;;
49444;SDS011;35323;43.080;-81.378;2023-03-05T04:08:21;6.43;;;3.70;;
49444;SDS011;35323;43.080;-81.378;2023-03-05T04:10:49;4.72;;;3.97;;
49444;SDS011;35323;43.080;-81.378;2023-03-05T04:13:16;6.00;;;3.83;;
49444;SDS011;35323;43.080;-81.378;2023-03-05T04:15:44;7.35;;;4.53;;
49444;SDS011;35323;43.080;-81.378;2023-03-05T04:18:11;6.85;;;4.85;;
49444;SDS011;35323;43.080;-81.378;2023-03-05T04:20:39;6.88;;;5.30;;
49444;SDS011;35323;43.080;-81.378;2023-03-05T04:23:06;5.05;;;4.43;;
49444;SDS011;35323;43.080;-81.378;2023-03-05T04:25:34;8.88;;;5.53;;
49444;SDS011;35323;43.080;-81.378;2023-03-05T04:28:01;5.45;;;4.32;;
49444;SDS011;35323;43.080;-81.378;2023-03-05T04:30:29;6.75;;;4.75;;
49444;SDS011;35323;43.080;-81.378;2023-03-05T04:32:57;6.00;;;5.05;;
49444;SDS011;35323;43.080;-81.378;2023-03-05T04:35:25;5.00;;;3.85;;
49444;SDS011;35323;43.080;-81.378;2023-03-05T04:37:53;8.18;;;6.57;;
49444;SDS011;35323;43.080;-81.378;2023-03-05T04:40:20;8.10;;;4.20;;
49444;SDS011;35323;43.080;-81.378;2023-03-05T04:42:48;6.40;;;4.43;;
49444;SDS011;35323;43.080;-81.378;2023-03-05T04:45:15;7.35;;;4.50;;
49444;SDS011;35323;43.080;-81.378;2023-03-05T04:47:43;6.20;;;4.72;;
49444;SDS011;35323;43.080;-81.378;2023-03-05T04:50:11;7.90;;;4.80;;
49444;SDS011;35323;43.080;-81.378;2023-03-05T04:52:39;8.25;;;5.90;;
49444;SDS011;35323;43.080;-81.378;2023-03-05T04:55:07;9.68;;;7.22;;
49444;SDS011;35323;43.080;-81.378;2023-03-05T04:57:35;9.02;;;4.20;;
49444;SDS011;35323;43.080;-81.378;2023-03-05T05:00:03;8.10;;;6.05;;
49444;SDS011;35323;43.080;-81.378;2023-03-05T05:02:33;8.30;;;6.65;;
49444;SDS011;35323;43.080;-81.378;2023-03-05T05:05:00;9.63;;;6.38;;
49444;SDS011;35323;43.080;-81.378;2023-03-05T05:07:28;7.47;;;6.07;;
49444;SDS011;35323;43.080;-81.378;2023-03-05T05:09:55;9.52;;;5.82;;
49444;SDS011;35323;43.080;-81.378;2023-03-05T05:12:23;8.20;;;6.22;;
49444;SDS011;35323;43.080;-81.378;2023-03-05T05:14:51;8.48;;;6.22;;
49444;SDS011;35323;43.080;-81.378;2023-03-05T05:17:18;7.75;;;6.25;;
49444;SDS011;35323;43.080;-81.378;2023-03-05T05:19:46;8.90;;;4.68;;
49444;SDS011;35323;43.080;-81.378;2023-03-05T05:22:13;8.65;;;5.28;;
49444;SDS011;35323;43.080;-81.378;2023-03-05T05:24:44;7.65;;;5.50;;
49444;SDS011;35323;43.080;-81.378;2023-03-05T05:27:11;10.57;;;6.25;;
49444;SDS011;35323;43.080;-81.378;2023-03-05T05:29:39;9.90;;;5.55;;
49444;SDS011;35323;43.080;-81.378;2023-03-05T05:32:07;10.48;;;6.22;;
49444;SDS011;35323;43.080;-81.378;2023-03-05T05:34:35;8.88;;;4.75;;
49444;SDS011;35323;43.080;-81.378;2023-03-05T05:37:02;6.97;;;4.53;;
49444;SDS011;35323;43.080;-81.378;2023-03-05T05:39:30;10.40;;;6.88;;
49444;SDS011;35323;43.080;-81.378;2023-03-05T05:41:57;9.18;;;6.10;;
49444;SDS011;35323;43.080;-81.378;2023-03-05T05:44:25;7.63;;;4.75;;
49444;SDS011;35323;43.080;-81.378;2023-03-05T05:46:52;9.32;;;5.47;;
49444;SDS011;35323;43.080;-81.378;2023-03-05T05:49:20;6.97;;;6.13;;
49444;SDS011;35323;43.080;-81.378;2023-03-05T05:51:47;11.30;;;7.15;;
49444;SDS011;35323;43.080;-81.378;2023-03-05T05:54:15;14.35;;;6.70;;
49444;SDS011;35323;43.080;-81.378;2023-03-05T05:56:42;10.63;;;5.45;;
49444;SDS011;35323;43.080;-81.378;2023-03-05T05:59:10;7.43;;;4.72;;
49444;SDS011;35323;43.080;-81.378;2023-03-05T06:01:37;10.68;;;5.65;;
49444;SDS011;35323;43.080;-81.378;2023-03-05T06:04:05;10.88;;;5.22;;
49444;SDS011;35323;43.080;-81.378;2023-03-05T06:06:34;8.55;;;5.38;;
49444;SDS011;35323;43.080;-81.378;2023-03-05T06:09:01;6.22;;;5.60;;
49444;SDS011;35323;43.080;-81.378;2023-03-05T06:11:29;10.52;;;7.68;;
49444;SDS011;35323;43.080;-81.378;2023-03-05T06:13:57;10.90;;;6.55;;
49444;SDS011;35323;43.080;-81.378;2023-03-05T06:16:24;9.40;;;5.15;;
49444;SDS011;35323;43.080;-81.378;2023-03-05T06:18:52;9.48;;;5.88;;
49444;SDS011;35323;43.080;-81.378;2023-03-05T06:21:21;11.50;;;6.30;;
49444;SDS011;35323;43.080;-81.378;2023-03-05T06:23:49;9.75;;;5.97;;
49444;SDS011;35323;43.080;-81.378;2023-03-05T06:26:18;9.38;;;5.97;;
49444;SDS011;35323;43.080;-81.378;2023-03-05T06:28:46;8.57;;;5.75;;
49444;SDS011;35323;43.080;-81.378;2023-03-05T06:31:15;11.23;;;6.60;;
49444;SDS011;35323;43.080;-81.378;2023-03-05T06:33:46;12.52;;;5.68;;
49444;SDS011;35323;43.080;-81.378;2023-03-05T06:36:14;10.80;;;6.18;;
49444;SDS011;35323;43.080;-81.378;2023-03-05T06:38:45;11.13;;;6.03;;
49444;SDS011;35323;43.080;-81.378;2023-03-05T06:41:18;10.85;;;6.38;;
49444;SDS011;35323;43.080;-81.378;2023-03-05T06:43:46;14.88;;;7.70;;
49444;SDS011;35323;43.080;-81.378;2023-03-05T06:46:20;8.40;;;6.78;;
49444;SDS011;35323;43.080;-81.378;2023-03-05T06:48:48;9.20;;;7.20;;
49444;SDS011;35323;43.080;-81.378;2023-03-05T06:51:23;9.18;;;5.95;;
49444;SDS011;35323;43.080;-81.378;2023-03-05T06:53:51;11.25;;;6.93;;
49444;SDS011;35323;43.080;-81.378;2023-03-05T06:56:22;9.40;;;6.78;;
49444;SDS011;35323;43.080;-81.378;2023-03-05T06:58:50;9.15;;;7.78;;
49444;SDS011;35323;43.080;-81.378;2023-03-05T07:01:18;10.15;;;8.30;;
49444;SDS011;35323;43.080;-81.378;2023-03-05T07:03:47;9.27;;;5.55;;
49444;SDS011;35323;43.080;-81.378;2023-03-05T07:06:15;11.15;;;6.55;;
49444;SDS011;35323;43.080;-81.378;2023-03-05T07:08:43;9.75;;;5.70;;
49444;SDS011;35323;43.080;-81.378;2023-03-05T07:11:16;6.75;;;5.22;;
49444;SDS011;35323;43.080;-81.378;2023-03-05T07:13:44;9.85;;;7.30;;
49444;SDS011;35323;43.080;-81.378;2023-03-05T07:16:16;10.77;;;6.82;;
49444;SDS011;35323;43.080;-81.378;2023-03-05T07:18:44;8.57;;;6.45;;
49444;SDS011;35323;43.080;-81.378;2023-03-05T07:21:19;12.15;;;7.35;;
49444;SDS011;35323;43.080;-81.378;2023-03-05T07:23:47;13.43;;;7.85;;
49444;SDS011;35323;43.080;-81.378;2023-03-05T07:26:14;10.35;;;6.72;;
49444;SDS011;35323;43.080;-81.378;2023-03-05T07:28:42;10.95;;;8.35;;
49444;SDS011;35323;43.080;-81.378;2023-03-05T07:31:17;17.80;;;8.68;;
49444;SDS011;35323;43.080;-81.378;2023-03-05T07:33:46;10.55;;;7.43;;
49444;SDS011;35323;43.080;-81.378;2023-03-05T07:36:14;14.70;;;10.30;;
49444;SDS011;35323;43.080;-81.378;2023-03-05T07:38:44;13.40;;;9.43;;
49444;SDS011;35323;43.080;-81.378;2023-03-05T07:41:13;13.85;;;10.25;;
49444;SDS011;35323;43.080;-81.378;2023-03-05T07:43:46;15.80;;;8.32;;
49444;SDS011;35323;43.080;-81.378;2023-03-05T07:46:15;12.57;;;7.93;;
49444;SDS011;35323;43.080;-81.378;2023-03-05T07:48:43;14.65;;;10.73;;
49444;SDS011;35323;43.080;-81.378;2023-03-05T07:51:15;13.82;;;7.53;;
49444;SDS011;35323;43.080;-81.378;2023-03-05T07:53:43;16.52;;;9.98;;
49444;SDS011;35323;43.080;-81.378;2023-03-05T07:56:11;18.95;;;10.32;;
49444;SDS011;35323;43.080;-81.378;2023-03-05T07:58:39;16.08;;;9.20;;
49444;SDS011;35323;43.080;-81.378;2023-03-05T08:01:10;15.43;;;9.30;;
49444;SDS011;35323;43.080;-81.378;2023-03-05T08:06:07;19.02;;;9.52;;
49444;SDS011;35323;43.080;-81.378;2023-03-05T08:08:35;19.92;;;10.68;;
49444;SDS011;35323;43.080;-81.378;2023-03-05T08:11:07;15.90;;;9.10;;
49444;SDS011;35323;43.080;-81.378;2023-03-05T08:13:38;13.85;;;8.93;;
49444;SDS011;35323;43.080;-81.378;2023-03-05T08:16:06;19.20;;;10.80;;
49444;SDS011;35323;43.080;-81.378;2023-03-05T08:18:34;12.40;;;10.27;;
49444;SDS011;35323;43.080;-81.378;2023-03-05T08:21:02;20.15;;;11.63;;
49444;SDS011;35323;43.080;-81.378;2023-03-05T08:23:30;16.50;;;11.55;;
49444;SDS011;35323;43.080;-81.378;2023-03-05T08:25:57;19.33;;;9.45;;
49444;SDS011;35323;43.080;-81.378;2023-03-05T08:28:25;20.95;;;11.85;;
49444;SDS011;35323;43.080;-81.378;2023-03-05T08:30:52;26.35;;;14.93;;
49444;SDS011;35323;43.080;-81.378;2023-03-05T08:33:20;16.65;;;9.60;;
49444;SDS011;35323;43.080;-81.378;2023-03-05T08:35:49;20.27;;;11.02;;
49444;SDS011;35323;43.080;-81.378;2023-03-05T08:38:16;17.95;;;12.63;;
49444;SDS011;35323;43.080;-81.378;2023-03-05T08:40:46;18.80;;;13.63;;
49444;SDS011;35323;43.080;-81.378;2023-03-05T08:43:15;21.42;;;11.68;;
49444;SDS011;35323;43.080;-81.378;2023-03-05T08:45:44;23.23;;;13.02;;
49444;SDS011;35323;43.080;-81.378;2023-03-05T08:48:14;22.13;;;11.80;;
49444;SDS011;35323;43.080;-81.378;2023-03-05T08:50:41;17.27;;;11.60;;
49444;SDS011;35323;43.080;-81.378;2023-03-05T08:53:09;22.52;;;13.68;;
49444;SDS011;35323;43.080;-81.378;2023-03-05T08:55:36;19.38;;;12.07;;
49444;SDS011;35323;43.080;-81.378;2023-03-05T08:58:04;17.92;;;10.63;;
49444;SDS011;35323;43.080;-81.378;2023-03-05T09:00:33;17.98;;;11.73;;
49444;SDS011;35323;43.080;-81.378;2023-03-05T09:03:00;22.13;;;9.98;;
49444;SDS011;35323;43.080;-81.378;2023-03-05T09:05:28;17.90;;;12.18;;
49444;SDS011;35323;43.080;-81.378;2023-03-05T09:07:57;18.38;;;12.80;;
49444;SDS011;35323;43.080;-81.378;2023-03-05T09:10:24;16.77;;;10.15;;
49444;SDS011;35323;43.080;-81.378;2023-03-05T09:12:52;17.17;;;11.02;;
49444;SDS011;35323;43.080;-81.378;2023-03-05T09:15:19;16.15;;;10.77;;
49444;SDS011;35323;43.080;-81.378;2023-03-05T09:17:47;23.85;;;13.40;;
49444;SDS011;35323;43.080;-81.378;2023-03-05T09:20:15;19.38;;;12.90;;
49444;SDS011;35323;43.080;-81.378;2023-03-05T09:22:42;20.83;;;13.98;;
49444;SDS011;35323;43.080;-81.378;2023-03-05T09:25:13;18.23;;;11.20;;
49444;SDS011;35323;43.080;-81.378;2023-03-05T09:27:40;20.80;;;11.63;;
49444;SDS011;35323;43.080;-81.378;2023-03-05T09:30:10;22.20;;;11.70;;
49444;SDS011;35323;43.080;-81.378;2023-03-05T09:32:38;21.50;;;14.40;;
49444;SDS011;35323;43.080;-81.378;2023-03-05T09:35:06;19.73;;;13.30;;
49444;SDS011;35323;43.080;-81.378;2023-03-05T09:37:34;20.25;;;14.95;;
49444;SDS011;35323;43.080;-81.378;2023-03-05T09:40:02;18.05;;;10.10;;
49444;SDS011;35323;43.080;-81.378;2023-03-05T09:50:42;21.42;;;12.40;;
49444;SDS011;35323;43.080;-81.378;2023-03-05T09:53:15;16.52;;;11.05;;
49444;SDS011;35323;43.080;-81.378;2023-03-05T09:55:45;19.50;;;12.55;;
49444;SDS011;35323;43.080;-81.378;2023-03-05T09:58:18;18.55;;;12.27;;
49444;SDS011;35323;43.080;-81.378;2023-03-05T10:00:49;16.70;;;13.40;;
49444;SDS011;35323;43.080;-81.378;2023-03-05T10:06:19;30.27;;;14.23;;
49444;SDS011;35323;43.080;-81.378;2023-03-05T10:08:55;24.02;;;12.07;;
49444;SDS011;35323;43.080;-81.378;2023-03-05T10:11:33;23.75;;;12.05;;
49444;SDS011;35323;43.080;-81.378;2023-03-05T10:14:03;17.10;;;12.13;;
49444;SDS011;35323;43.080;-81.378;2023-03-05T10:16:37;20.50;;;13.35;;
49444;SDS011;35323;43.080;-81.378;2023-03-05T10:21:50;17.10;;;13.85;;
49444;SDS011;35323;43.080;-81.378;2023-03-05T10:27:32;22.85;;;13.77;;
49444;SDS011;35323;43.080;-81.378;2023-03-05T10:30:04;21.42;;;14.93;;
49444;SDS011;35323;43.080;-81.378;2023-03-05T10:32:38;20.02;;;13.73;;
49444;SDS011;35323;43.080;-81.378;2023-03-05T10:42:52;24.58;;;12.60;;
49444;SDS011;35323;43.080;-81.378;2023-03-05T10:45:34;21.00;;;11.10;;
49444;SDS011;35323;43.080;-81.378;2023-03-05T10:50:37;18.33;;;12.77;;
49444;SDS011;35323;43.080;-81.378;2023-03-05T10:55:34;19.60;;;12.90;;
49444;SDS011;35323;43.080;-81.378;2023-03-05T10:58:08;19.63;;;13.50;;
49444;SDS011;35323;43.080;-81.378;2023-03-05T11:00:36;24.60;;;13.88;;
49444;SDS011;35323;43.080;-81.378;2023-03-05T11:03:05;21.70;;;13.88;;
49444;SDS011;35323;43.080;-81.378;2023-03-05T11:08:21;30.50;;;14.98;;
49444;SDS011;35323;43.080;-81.378;2023-03-05T11:13:36;22.52;;;13.02;;
49444;SDS011;35323;43.080;-81.378;2023-03-05T11:16:10;21.38;;;14.32;;
49444;SDS011;35323;43.080;-81.378;2023-03-05T11:18:43;19.25;;;13.13;;
49444;SDS011;35323;43.080;-81.378;2023-03-05T11:21:19;18.73;;;12.88;;
49444;SDS011;35323;43.080;-81.378;2023-03-05T11:24:04;19.95;;;12.98;;
49444;SDS011;35323;43.080;-81.378;2023-03-05T11:26:31;31.23;;;12.40;;
49444;SDS011;35323;43.080;-81.378;2023-03-05T11:29:00;18.08;;;12.70;;
49444;SDS011;35323;43.080;-81.378;2023-03-05T11:31:30;19.58;;;13.43;;
49444;SDS011;35323;43.080;-81.378;2023-03-05T11:34:02;29.05;;;15.80;;
49444;SDS011;35323;43.080;-81.378;2023-03-05T11:36:32;22.50;;;11.80;;
49444;SDS011;35323;43.080;-81.378;2023-03-05T11:41:56;20.83;;;12.98;;
49444;SDS011;35323;43.080;-81.378;2023-03-05T11:46:53;27.13;;;12.75;;
49444;SDS011;35323;43.080;-81.378;2023-03-05T11:49:24;25.63;;;13.38;;
49444;SDS011;35323;43.080;-81.378;2023-03-05T11:54:22;23.55;;;13.05;;
49444;SDS011;35323;43.080;-81.378;2023-03-05T11:56:50;26.42;;;14.52;;
49444;SDS011;35323;43.080;-81.378;2023-03-05T11:59:24;24.88;;;11.48;;
49444;SDS011;35323;43.080;-81.378;2023-03-05T12:01:55;19.02;;;11.63;;
49444;SDS011;35323;43.080;-81.378;2023-03-05T12:04:25;19.73;;;11.50;;
49444;SDS011;35323;43.080;-81.378;2023-03-05T12:06:57;22.55;;;11.55;;
49444;SDS011;35323;43.080;-81.378;2023-03-05T12:09:38;19.30;;;12.50;;
49444;SDS011;35323;43.080;-81.378;2023-03-05T12:17:24;16.20;;;10.57;;
49444;SDS011;35323;43.080;-81.378;2023-03-05T12:22:33;18.17;;;11.10;;
49444;SDS011;35323;43.080;-81.378;2023-03-05T12:25:22;18.33;;;11.73;;
49444;SDS011;35323;43.080;-81.378;2023-03-05T12:27:50;15.07;;;9.68;;
49444;SDS011;35323;43.080;-81.378;2023-03-05T12:33:01;20.92;;;9.20;;
49444;SDS011;35323;43.080;-81.378;2023-03-05T12:35:30;16.67;;;8.98;;
49444;SDS011;35323;43.080;-81.378;2023-03-05T12:38:04;15.50;;;10.02;;
49444;SDS011;35323;43.080;-81.378;2023-03-05T12:40:51;10.88;;;7.95;;
49444;SDS011;35323;43.080;-81.378;2023-03-05T12:43:29;17.05;;;8.82;;
49444;SDS011;35323;43.080;-81.378;2023-03-05T12:48:43;11.15;;;7.80;;
49444;SDS011;35323;43.080;-81.378;2023-03-05T12:51:11;14.70;;;8.73;;
49444;SDS011;35323;43.080;-81.378;2023-03-05T12:53:38;12.77;;;7.75;;
49444;SDS011;35323;43.080;-81.378;2023-03-05T12:56:15;10.07;;;7.60;;
49444;SDS011;35323;43.080;-81.378;2023-03-05T12:58:48;11.35;;;6.53;;
49444;SDS011;35323;43.080;-81.378;2023-03-05T13:01:35;13.02;;;8.27;;
49444;SDS011;35323;43.080;-81.378;2023-03-05T13:04:15;9.32;;;6.95;;
49444;SDS011;35323;43.080;-81.378;2023-03-05T13:06:45;7.75;;;6.60;;
49444;SDS011;35323;43.080;-81.378;2023-03-05T13:09:18;15.98;;;8.63;;
49444;SDS011;35323;43.080;-81.378;2023-03-05T13:11:47;11.65;;;7.32;;
49444;SDS011;35323;43.080;-81.378;2023-03-05T13:16:59;18.67;;;7.90;;
49444;SDS011;35323;43.080;-81.378;2023-03-05T13:19:27;13.77;;;8.05;;
49444;SDS011;35323;43.080;-81.378;2023-03-05T13:22:00;10.05;;;6.65;;
49444;SDS011;35323;43.080;-81.378;2023-03-05T13:24:28;10.77;;;7.45;;
49444;SDS011;35323;43.080;-81.378;2023-03-05T13:26:56;13.38;;;7.28;;
49444;SDS011;35323;43.080;-81.378;2023-03-05T13:29:24;10.52;;;6.97;;
49444;SDS011;35323;43.080;-81.378;2023-03-05T13:32:00;7.05;;;5.43;;
49444;SDS011;35323;43.080;-81.378;2023-03-05T13:34:30;15.82;;;7.80;;
49444;SDS011;35323;43.080;-81.378;2023-03-05T13:39:41;7.95;;;4.93;;
49444;SDS011;35323;43.080;-81.378;2023-03-05T13:42:21;11.95;;;7.95;;
49444;SDS011;35323;43.080;-81.378;2023-03-05T13:47:49;13.68;;;7.65;;
49444;SDS011;35323;43.080;-81.378;2023-03-05T13:50:27;11.35;;;6.60;;
49444;SDS011;35323;43.080;-81.378;2023-03-05T13:52:59;12.50;;;6.35;;
49444;SDS011;35323;43.080;-81.378;2023-03-05T13:55:40;11.95;;;6.70;;
49444;SDS011;35323;43.080;-81.378;2023-03-05T13:58:39;11.18;;;5.50;;
49444;SDS011;35323;43.080;-81.378;2023-03-05T14:01:02;10.15;;;6.30;;
49444;SDS011;35323;43.080;-81.378;2023-03-05T14:03:30;8.30;;;6.68;;
49444;SDS011;35323;43.080;-81.378;2023-03-05T14:06:00;12.13;;;6.43;;
49444;SDS011;35323;43.080;-81.378;2023-03-05T14:08:32;11.27;;;6.18;;
49444;SDS011;35323;43.080;-81.378;2023-03-05T14:11:09;13.93;;;7.20;;
49444;SDS011;35323;43.080;-81.378;2023-03-05T14:13:37;10.45;;;5.35;;
49444;SDS011;35323;43.080;-81.378;2023-03-05T14:16:06;7.03;;;5.47;;
49444;SDS011;35323;43.080;-81.378;2023-03-05T14:18:37;11.32;;;6.63;;
49444;SDS011;35323;43.080;-81.378;2023-03-05T14:21:08;7.22;;;5.50;;
49444;SDS011;35323;43.080;-81.378;2023-03-05T14:26:10;11.05;;;6.32;;
49444;SDS011;35323;43.080;-81.378;2023-03-05T14:28:38;13.73;;;6.72;;
49444;SDS011;35323;43.080;-81.378;2023-03-05T14:31:09;7.55;;;4.45;;
49444;SDS011;35323;43.080;-81.378;2023-03-05T14:33:41;11.35;;;6.93;;
49444;SDS011;35323;43.080;-81.378;2023-03-05T14:36:09;7.43;;;6.13;;
49444;SDS011;35323;43.080;-81.378;2023-03-05T14:38:40;6.63;;;5.28;;
49444;SDS011;35323;43.080;-81.378;2023-03-05T14:41:19;6.55;;;4.13;;
49444;SDS011;35323;43.080;-81.378;2023-03-05T14:43:46;10.32;;;5.43;;
49444;SDS011;35323;43.080;-81.378;2023-03-05T14:46:14;7.93;;;6.20;;
49444;SDS011;35323;43.080;-81.378;2023-03-05T14:48:42;13.52;;;7.18;;
49444;SDS011;35323;43.080;-81.378;2023-03-05T14:51:09;8.18;;;5.90;;
49444;SDS011;35323;43.080;-81.378;2023-03-05T14:53:38;8.60;;;5.03;;
49444;SDS011;35323;43.080;-81.378;2023-03-05T14:56:09;8.98;;;5.57;;
49444;SDS011;35323;43.080;-81.378;2023-03-05T14:58:41;10.35;;;7.00;;
49444;SDS011;35323;43.080;-81.378;2023-03-05T15:01:10;8.25;;;5.38;;
49444;SDS011;35323;43.080;-81.378;2023-03-05T15:03:38;10.57;;;5.80;;
49444;SDS011;35323;43.080;-81.378;2023-03-05T15:06:13;7.60;;;4.30;;
49444;SDS011;35323;43.080;-81.378;2023-03-05T15:08:42;9.30;;;5.55;;
49444;SDS011;35323;43.080;-81.378;2023-03-05T15:11:10;8.93;;;5.75;;
49444;SDS011;35323;43.080;-81.378;2023-03-05T15:13:37;8.98;;;6.25;;
49444;SDS011;35323;43.080;-81.378;2023-03-05T15:16:05;10.23;;;5.07;;
49444;SDS011;35323;43.080;-81.378;2023-03-05T15:18:33;10.70;;;5.78;;
49444;SDS011;35323;43.080;-81.378;2023-03-05T15:21:00;10.05;;;5.82;;
49444;SDS011;35323;43.080;-81.378;2023-03-05T15:23:29;8.15;;;6.22;;
49444;SDS011;35323;43.080;-81.378;2023-03-05T15:26:03;16.42;;;5.93;;
49444;SDS011;35323;43.080;-81.378;2023-03-05T15:28:32;10.77;;;5.68;;
49444;SDS011;35323;43.080;-81.378;2023-03-05T15:31:01;11.15;;;5.40;;
49444;SDS011;35323;43.080;-81.378;2023-03-05T15:33:29;5.60;;;4.80;;
49444;SDS011;35323;43.080;-81.378;2023-03-05T15:36:00;7.32;;;5.07;;